Star Markella — V7KL3 — position and weather

sailwx.info

Track history (hours):
 
Tides and Currents Weather Stations Pressure Air Temp Water Temp Dewpoint Dewpoint Depression Visibility Wind Speed Wind Dir Waves Ship Positions

Star Markella

Last reported at 2016-Dec-20 23:33 UTC. Time now 2017-Jan-22 22:27 UTC.
Position N 34°35' E 134°51'.
Warning: this ship's position is 32 days out of date.

Length 229 m; draft 11.9 m.

Type: Cargo ship. MMSI: 538002640.

Date/timePositionNaut miles runAvg speedWind from/ knotsBaromVisibWave heightAir tempDewpointWater temp
2016-Dec-20 23:33N 34°35' E 134°51'9 8.4
2016-Dec-20 22:31N 34°37' E 135°01'8 8.6
2016-Dec-20 21:33N 34°35' E 135°11'1 0.9
2016-Dec-20 20:29N 34°34' E 135°12'0 0.1
2016-Dec-20 19:29N 34°34' E 135°12'0 0.1
2016-Dec-20 18:29N 34°34' E 135°12'0 0.0
2016-Dec-20 17:29N 34°35' E 135°12'0 0.0
2016-Dec-20 16:23N 34°35' E 135°12'0 0.1
2016-Dec-20 15:29N 34°34' E 135°12'0 0.1
2016-Dec-20 14:29N 34°34' E 135°12'0 0.0
2016-Dec-20 13:33N 34°34' E 135°12'0 0.1
2016-Dec-20 12:33N 34°35' E 135°12'3 2.7
2016-Dec-20 11:33N 34°32' E 135°10'1111.4
2016-Dec-20 10:33N 34°22' E 135°03'1110.5
2016-Dec-20 09:33N 34°12' E 134°59'9 9.4
2016-Dec-20 08:33N 34°03' E 134°58'  
Track history (hours):
 
Tides and Currents Weather Stations Pressure Air Temp Water Temp Dewpoint Dewpoint Depression Visibility Wind Speed Wind Dir Waves Ship Positions

Star Markella

Last reported at 2016-Dec-20 23:33 UTC. Time now 2017-Jan-22 22:27 UTC.
Position N 34°35' E 134°51'.
Warning: this ship's position is 32 days out of date.

Length 229 m; draft 11.9 m.

Type: Cargo ship. MMSI: 538002640.

Date/timePositionNaut miles runAvg speedWind from/ knotsBaromVisibWave heightAir tempDewpointWater temp
2016-Dec-20 23:33N 34°35' E 134°51'9 8.4
2016-Dec-20 22:31N 34°37' E 135°01'8 8.6
2016-Dec-20 21:33N 34°35' E 135°11'1 0.9
2016-Dec-20 20:29N 34°34' E 135°12'0 0.1
2016-Dec-20 19:29N 34°34' E 135°12'0 0.1
2016-Dec-20 18:29N 34°34' E 135°12'0 0.0
2016-Dec-20 17:29N 34°35' E 135°12'0 0.0
2016-Dec-20 16:23N 34°35' E 135°12'0 0.1
2016-Dec-20 15:29N 34°34' E 135°12'0 0.1
2016-Dec-20 14:29N 34°34' E 135°12'0 0.0
2016-Dec-20 13:33N 34°34' E 135°12'0 0.1
2016-Dec-20 12:33N 34°35' E 135°12'3 2.7
2016-Dec-20 11:33N 34°32' E 135°10'1111.4
2016-Dec-20 10:33N 34°22' E 135°03'1110.5
2016-Dec-20 09:33N 34°12' E 134°59'9 9.4
2016-Dec-20 08:33N 34°03' E 134°58'  

Dump ship's entire track history